PWSweather.com
Personal Weather Stations
Station Observations
IVENETOL9
Brugine, BrugineIT 35020

BrugineBrugineIT 35020

Lat: 45.2975, Lon: 11.9962777

Elevation: 19

Station Type: Davis Vantage Pro2 Plus

http://www.meteobrugine.it/

Latest ConditionsUpdated 2:45:56 PM GMT+01:01 Tuesday, Jul 26, 2016
Currently Today's Max Today's Min Today's Average
Temperature 89.7°F32.1°C 90.2°F32.3°C 68.6°F20.3°C 79.0°F26.1°C
Dew Point 66.2°F19.0°C 69.9°F21.1°C 65.2°F18.4°C 67.7°F19.8°C
Winds 0.1 mph ENE0.2 kmh ENE 1.5 mph N2.4 kmh N - 0.1 mph 0.2 kmh
Wind Gusts 1.0 mph1.6 kmh 6.0 mph9.7 kmh - -
Humidity 46% 91% 46% 71%
Pressure 29.94 in1013.9 mb 29.98 in1015.2 mb 29.94 in1013.9 mb -
Hour Temp Dew Point Humidity Winds Wind Gusts Pressure Precip Precip Rate Daily Precip Total
02:45 PM 89.7°F32.1°C 66.2°F19.0°C 46% 0.1 mph ENE0.2 kmh ENE 1.0 mph1.6 kmh 29.94 in1013.9 mb - 0.00 in0.0 mm 0.00 in0.0 mm
02:31 PM 89.1°F31.7°C 66.2°F19.0°C 47% Calm Calm -- 29.94 in1013.9 mb - 0.00 in0.0 mm 0.00 in0.0 mm
02:15 PM 89.7°F32.1°C 68.0°F20.0°C 49% 0.7 mph NNE1.1 kmh NNE 5.0 mph8.0 kmh 29.94 in1013.9 mb - 0.00 in0.0 mm 0.00 in0.0 mm
02:00 PM 90.2°F32.3°C 67.8°F19.9°C 48% 0.1 mph ENE0.2 kmh ENE -- 29.94 in1013.9 mb - 0.00 in0.0 mm 0.00 in0.0 mm
01:46 PM 89.4°F31.9°C 68.3°F20.2°C 50% 0.2 mph N0.3 kmh N 1.0 mph1.6 kmh 29.95 in1014.2 mb - 0.00 in0.0 mm 0.00 in0.0 mm
01:30 PM 88.6°F31.4°C 67.6°F19.8°C 50% Calm Calm -- 29.95 in1014.2 mb - 0.00 in0.0 mm 0.00 in0.0 mm
01:15 PM 89.0°F31.7°C 67.9°F19.9°C 50% Calm Calm -- 29.95 in1014.2 mb - 0.00 in0.0 mm 0.00 in0.0 mm
01:01 PM 89.0°F31.7°C 68.5°F20.3°C 51% Calm Calm -- 29.96 in1014.6 mb - 0.00 in0.0 mm 0.00 in0.0 mm
12:45 PM 88.5°F31.4°C 68.6°F20.3°C 52% Calm Calm 1.0 mph1.6 kmh 29.96 in1014.6 mb - 0.00 in0.0 mm 0.00 in0.0 mm
12:30 PM 88.8°F31.6°C 68.9°F20.5°C 52% 0.1 mph NE0.2 kmh NE 1.0 mph1.6 kmh 29.97 in1014.9 mb - 0.00 in0.0 mm 0.00 in0.0 mm
12:15 PM 88.7°F31.5°C 68.2°F20.1°C 51% Calm Calm 1.0 mph1.6 kmh 29.97 in1014.9 mb - 0.00 in0.0 mm 0.00 in0.0 mm
12:00 PM 88.5°F31.4°C 68.0°F20.0°C 51% 0.5 mph E0.8 kmh E 1.0 mph1.6 kmh 29.97 in1014.9 mb - 0.00 in0.0 mm 0.00 in0.0 mm
11:45 AM 88.8°F31.6°C 68.3°F20.2°C 51% 1.5 mph NE2.4 kmh NE 5.0 mph8.0 kmh 29.97 in1014.9 mb - 0.00 in0.0 mm 0.00 in0.0 mm
11:31 AM 88.7°F31.5°C 66.5°F19.2°C 48% Calm Calm -- 29.98 in1015.2 mb - 0.00 in0.0 mm 0.00 in0.0 mm
11:15 AM 88.6°F31.4°C 65.2°F18.4°C 46% 1.5 mph N2.4 kmh N 6.0 mph9.7 kmh 29.98 in1015.2 mb - 0.00 in0.0 mm 0.00 in0.0 mm
11:01 AM 88.3°F31.3°C 66.8°F19.3°C 49% Calm Calm 1.0 mph1.6 kmh 29.98 in1015.2 mb - 0.00 in0.0 mm 0.00 in0.0 mm
10:45 AM 87.7°F30.9°C 67.9°F19.9°C 52% Calm Calm 1.0 mph1.6 kmh 29.98 in1015.2 mb - 0.00 in0.0 mm 0.00 in0.0 mm
10:30 AM 87.4°F30.8°C 67.1°F19.5°C 51% 0.1 mph ESE0.2 kmh ESE 1.0 mph1.6 kmh 29.98 in1015.2 mb - 0.00 in0.0 mm 0.00 in0.0 mm
10:15 AM 87.0°F30.6°C 67.8°F19.9°C 53% 0.3 mph NE0.5 kmh NE 6.0 mph9.7 kmh 29.98 in1015.2 mb - 0.00 in0.0 mm 0.00 in0.0 mm
10:01 AM 86.9°F30.5°C 68.8°F20.4°C 55% 1.3 mph NE2.1 kmh NE 2.0 mph3.2 kmh 29.98 in1015.2 mb - 0.00 in0.0 mm 0.00 in0.0 mm
09:46 AM 85.7°F29.8°C 69.7°F20.9°C 59% Calm Calm -- 29.98 in1015.2 mb - 0.00 in0.0 mm 0.00 in0.0 mm
09:30 AM 85.0°F29.4°C 69.6°F20.9°C 60% Calm Calm -- 29.98 in1015.2 mb - 0.00 in0.0 mm 0.00 in0.0 mm
09:15 AM 83.9°F28.8°C 69.9°F21.1°C 63% Calm Calm -- 29.98 in1015.2 mb - 0.00 in0.0 mm 0.00 in0.0 mm
09:00 AM 83.0°F28.3°C 69.1°F20.6°C 63% Calm Calm -- 29.98 in1015.2 mb - 0.00 in0.0 mm 0.00 in0.0 mm
08:45 AM 82.9°F28.3°C 69.0°F20.6°C 63% Calm Calm -- 29.98 in1015.2 mb - 0.00 in0.0 mm 0.00 in0.0 mm
08:30 AM 82.7°F28.2°C 68.8°F20.4°C 63% Calm Calm -- 29.98 in1015.2 mb - 0.00 in0.0 mm 0.00 in0.0 mm
08:15 AM 81.3°F27.4°C 69.3°F20.7°C 67% Calm Calm 1.0 mph1.6 kmh 29.98 in1015.2 mb - 0.00 in0.0 mm 0.00 in0.0 mm
08:00 AM 80.9°F27.2°C 68.9°F20.5°C 67% Calm Calm 1.0 mph1.6 kmh 29.98 in1015.2 mb - 0.00 in0.0 mm 0.00 in0.0 mm
07:45 AM 79.8°F26.6°C 69.5°F20.8°C 71% Calm Calm 1.0 mph1.6 kmh 29.97 in1014.9 mb - 0.00 in0.0 mm 0.00 in0.0 mm
07:31 AM 78.9°F26.1°C 68.7°F20.4°C 71% Calm Calm -- 29.97 in1014.9 mb - 0.00 in0.0 mm 0.00 in0.0 mm
07:16 AM 78.4°F25.8°C 68.6°F20.3°C 72% Calm Calm -- 29.97 in1014.9 mb - 0.00 in0.0 mm 0.00 in0.0 mm
07:01 AM 78.0°F25.6°C 69.1°F20.6°C 74% Calm Calm -- 29.97 in1014.9 mb - 0.00 in0.0 mm 0.00 in0.0 mm
06:45 AM 76.3°F24.6°C 69.7°F20.9°C 80% Calm Calm -- 29.97 in1014.9 mb - 0.00 in0.0 mm 0.00 in0.0 mm
06:30 AM 73.7°F23.2°C 69.6°F20.9°C 87% 0.1 mph NW0.2 kmh NW -- 29.96 in1014.6 mb - 0.00 in0.0 mm 0.00 in0.0 mm
06:16 AM 71.3°F21.8°C 68.2°F20.1°C 90% Calm Calm -- 29.96 in1014.6 mb - 0.00 in0.0 mm 0.00 in0.0 mm
06:01 AM 69.9°F21.1°C 67.2°F19.6°C 91% Calm Calm -- 29.96 in1014.6 mb - 0.00 in0.0 mm 0.00 in0.0 mm
05:45 AM 69.2°F20.7°C 66.5°F19.2°C 91% Calm Calm -- 29.95 in1014.2 mb - 0.00 in0.0 mm 0.00 in0.0 mm
05:30 AM 68.9°F20.5°C 66.2°F19.0°C 91% Calm Calm -- 29.95 in1014.2 mb - 0.00 in0.0 mm 0.00 in0.0 mm
05:15 AM 68.9°F20.5°C 66.2°F19.0°C 91% Calm Calm -- 29.95 in1014.2 mb - 0.00 in0.0 mm 0.00 in0.0 mm
05:00 AM 68.9°F20.5°C 66.2°F19.0°C 91% Calm Calm -- 29.95 in1014.2 mb - 0.00 in0.0 mm 0.00 in0.0 mm
04:45 AM 68.9°F20.5°C 66.2°F19.0°C 91% Calm Calm -- 29.95 in1014.2 mb - 0.00 in0.0 mm 0.00 in0.0 mm
04:30 AM 68.8°F20.4°C 66.1°F18.9°C 91% Calm Calm -- 29.95 in1014.2 mb - 0.00 in0.0 mm 0.00 in0.0 mm
04:15 AM 68.6°F20.3°C 65.9°F18.8°C 91% Calm Calm -- 29.95 in1014.2 mb - 0.00 in0.0 mm 0.00 in0.0 mm
04:00 AM 68.9°F20.5°C 66.1°F18.9°C 91% Calm Calm -- 29.95 in1014.2 mb - 0.00 in0.0 mm 0.00 in0.0 mm
03:45 AM 69.4°F20.8°C 66.3°F19.1°C 90% Calm Calm -- 29.95 in1014.2 mb - 0.00 in0.0 mm 0.00 in0.0 mm
03:31 AM 69.6°F20.9°C 66.5°F19.2°C 90% Calm Calm -- 29.95 in1014.2 mb - 0.00 in0.0 mm 0.00 in0.0 mm
03:16 AM 69.8°F21.0°C 66.4°F19.1°C 89% Calm Calm -- 29.95 in1014.2 mb - 0.00 in0.0 mm 0.00 in0.0 mm
03:01 AM 70.1°F21.2°C 66.7°F19.3°C 89% Calm Calm -- 29.95 in1014.2 mb - 0.00 in0.0 mm 0.00 in0.0 mm
02:46 AM 70.2°F21.2°C 66.5°F19.2°C 88% Calm Calm -- 29.95 in1014.2 mb - 0.00 in0.0 mm 0.00 in0.0 mm
02:31 AM 70.3°F21.3°C 66.9°F19.4°C 89% Calm Calm -- 29.95 in1014.2 mb - 0.00 in0.0 mm 0.00 in0.0 mm
02:16 AM 70.7°F21.5°C 67.0°F19.4°C 88% Calm Calm -- 29.95 in1014.2 mb - 0.00 in0.0 mm 0.00 in0.0 mm
02:01 AM 71.3°F21.8°C 66.9°F19.4°C 86% Calm Calm -- 29.95 in1014.2 mb - 0.00 in0.0 mm 0.00 in0.0 mm
01:45 AM 72.0°F22.2°C 67.2°F19.6°C 85% Calm Calm -- 29.95 in1014.2 mb - 0.00 in0.0 mm 0.00 in0.0 mm
01:31 AM 72.1°F22.3°C 67.3°F19.6°C 85% Calm Calm -- 29.95 in1014.2 mb - 0.00 in0.0 mm 0.00 in0.0 mm
01:15 AM 71.9°F22.2°C 67.5°F19.7°C 86% Calm Calm -- 29.95 in1014.2 mb - 0.00 in0.0 mm 0.00 in0.0 mm
01:01 AM 72.2°F22.3°C 67.5°F19.7°C 85% Calm Calm -- 29.96 in1014.6 mb - 0.00 in0.0 mm 0.00 in0.0 mm
12:46 AM 72.6°F22.6°C 67.8°F19.9°C 85% Calm Calm -- 29.95 in1014.2 mb - 0.00 in0.0 mm 0.00 in0.0 mm
12:31 AM 72.9°F22.7°C 67.4°F19.7°C 83% Calm Calm -- 29.95 in1014.2 mb - 0.00 in0.0 mm 0.00 in0.0 mm
12:16 AM 73.3°F22.9°C 67.9°F19.9°C 83% Calm Calm -- 29.96 in1014.6 mb - 0.00 in0.0 mm 0.00 in0.0 mm
12:01 AM 73.5°F23.1°C 67.7°F19.8°C 82% Calm Calm -- 29.96 in1014.6 mb - 0.00 in0.0 mm 0.00 in0.0 mm